M I D A S
Marine Information and Data Acquisition System
Tripno 1156 of the Zeeleeuw from 2006-08-30 06:22:36 to 2006-08-30 15:14:32
Back to CruiseResearch ActivitiesStationsMapUnderway DataData graphs

EquipmentUnitsComment
TimeDGPSUTC
LatitudeDGPSDM.mWGS84
LongitudeDGPSDM.mWGS84
HeadingGyrodeg 
SOGDGPSknotsSpeed over ground
COGDGPSdegCourse over ground
DepthEcho soundermeters200 kHz
Missing or incorrect values are displayed as -999
Navigation data collected by the RV Zeeleeuw from 2006-08-30 06:22:43 to 2006-08-30 15:25:18
Time Latitude Longitude Heading SOG COG Depth
2006-08-30 06:23:49 51°13.61 2°56.04 114.5 2.8 292 -999
2006-08-30 06:24:49 51°13.633 2°55.959 123 3.5 299 -999
2006-08-30 06:25:49 51°13.664 2°55.88 123.8 3.5 303 -999
2006-08-30 06:26:50 51°13.689 2°55.804 113.1 2.9 293 -999
2006-08-30 06:27:49 51°13.702 2°55.741 104.6 2.1 286 -999
2006-08-30 06:28:48 51°13.707 2°55.738 67.3 1.1 56 14
2006-08-30 06:29:48 51°13.704 2°55.742 30.5 1.3 205 -999
2006-08-30 06:30:48 51°13.715 2°55.737 346 2.2 342 13.5
2006-08-30 06:31:48 51°13.768 2°55.686 330.9 4.8 328 11.3
2006-08-30 06:32:48 51°13.854 2°55.617 337.7 6.5 335 11.4
2006-08-30 06:33:48 51°13.962 2°55.541 338.8 7.4 336 11.9
2006-08-30 06:34:48 51°14.076 2°55.463 338.8 7.4 336 11.4
2006-08-30 06:35:48 51°14.191 2°55.36 326.7 8.4 324 11.4
2006-08-30 06:36:48 51°14.296 2°55.203 315 8.7 311 11.4
2006-08-30 06:37:48 51°14.397 2°55.022 320.6 9.5 316 11.7
2006-08-30 06:38:47 51°14.526 2°54.874 329.7 10 328 10.5
2006-08-30 06:39:48 51°14.685 2°54.752 339.2 10.8 337 10.3
2006-08-30 06:40:48 51°14.856 2°54.633 337.1 11.4 336 10.4
2006-08-30 06:41:49 51°15.032 2°54.509 338.1 10.8 337 -999
2006-08-30 06:42:48 51°15.195 2°54.392 338.6 11.2 336 10
2006-08-30 06:43:48 51°15.362 2°54.268 338 11.3 334 10.3
2006-08-30 06:44:49 51°15.533 2°54.139 338.9 11.3 333 11.2
2006-08-30 06:45:48 51°15.697 2°54.013 337.8 11.1 336 11.5
2006-08-30 06:46:48 51°15.868 2°53.893 340.7 11.3 336 11.9
2006-08-30 06:47:48 51°16.041 2°53.778 340.4 11.3 338 12.2
2006-08-30 06:48:48 51°16.217 2°53.679 345.1 11.4 340 12.5
2006-08-30 06:49:49 51°16.4 2°53.586 346.3 11.1 344 -999
2006-08-30 06:50:48 51°16.569 2°53.499 343.9 11.1 343 12.6
2006-08-30 06:51:48 51°16.744 2°53.431 348.5 10.7 345 12.2
2006-08-30 06:52:48 51°16.924 2°53.369 352.9 11.1 351 9.7
2006-08-30 06:53:48 51°17.113 2°53.318 353.5 11.6 352 9.6
2006-08-30 06:54:47 51°17.301 2°53.284 0.4 11.8 357 10.2
2006-08-30 06:55:49 51°17.499 2°53.287 11.1 11.3 9 10.4
2006-08-30 06:56:48 51°17.682 2°53.349 15.7 11.6 14 11
2006-08-30 06:57:48 51°17.868 2°53.413 14.5 11.5 9 11
2006-08-30 06:58:48 51°18.058 2°53.467 13.7 11.8 9 11.3
2006-08-30 06:59:47 51°18.246 2°53.519 11.9 11 6 11.6
2006-08-30 07:00:48 51°18.434 2°53.542 0.7 11.4 355 12.1
2006-08-30 07:01:48 51°18.602 2°53.454 339.8 10.9 335 12.2
2006-08-30 07:02:48 51°18.773 2°53.323 339.1 11.5 336 12.5
2006-08-30 07:03:49 51°18.939 2°53.205 342.5 8.4 338 -999
2006-08-30 07:04:48 51°19.022 2°53.146 338.8 3.4 337 12.8
2006-08-30 07:05:48 51°19.062 2°53.13 344.9 2.2 347 12.9
2006-08-30 07:06:49 51°19.096 2°53.108 326.6 2 331 13
2006-08-30 07:07:49 51°19.124 2°53.071 322.9 1.9 322 13.2
2006-08-30 07:08:48 51°19.134 2°53.071 349.1 0.5 82 13.4
2006-08-30 07:09:47 51°19.132 2°53.089 26 1.2 116 12.7
2006-08-30 07:10:48 51°19.125 2°53.101 47.9 0.7 130 13.2
2006-08-30 07:11:48 51°19.119 2°53.115 54.6 0.5 117 13.1
2006-08-30 07:12:48 51°19.114 2°53.129 52.9 0.7 120 13.1
2006-08-30 07:13:49 51°19.11 2°53.142 43.4 0.5 141 12.4
2006-08-30 07:14:48 51°19.104 2°53.153 41.8 0.5 139 13.1
2006-08-30 07:15:48 51°19.097 2°53.164 44.3 0.7 141 13
2006-08-30 07:16:48 51°19.089 2°53.174 50.3 0.5 137 13
2006-08-30 07:17:48 51°19.082 2°53.183 48.9 0.7 130 12.5
2006-08-30 07:18:48 51°19.072 2°53.19 55 0.2 207 13
2006-08-30 07:19:48 51°19.072 2°53.209 44.5 1.8 49 13
2006-08-30 07:20:49 51°19.118 2°53.255 28.3 4.3 31 12.7
2006-08-30 07:21:48 51°19.188 2°53.322 34.2 5.3 30 12.9
2006-08-30 07:22:48 51°19.258 2°53.389 35.1 4 33 13
2006-08-30 07:23:48 51°19.293 2°53.432 37 1.5 41 13.2
2006-08-30 07:24:48 51°19.292 2°53.447 46.5 0.9 125 13.2
2006-08-30 07:25:48 51°19.285 2°53.462 56.6 0.5 122 13
2006-08-30 07:26:48 51°19.278 2°53.474 56.5 0.6 124 12.8
2006-08-30 07:27:49 51°19.27 2°53.489 49.6 1.4 128 12.8
2006-08-30 07:28:48 51°19.266 2°53.503 44 0.7 127 12.9
2006-08-30 07:29:48 51°19.259 2°53.513 38.3 0.6 141 13
2006-08-30 07:30:48 51°19.254 2°53.523 35.3 0.7 126 13
2006-08-30 07:31:48 51°19.247 2°53.535 35.2 0.5 130 12.9
2006-08-30 07:32:48 51°19.239 2°53.544 40.9 0.5 146 13.1
2006-08-30 07:33:48 51°19.23 2°53.551 46.2 0.7 150 13.1
2006-08-30 07:34:48 51°19.221 2°53.56 47.8 1 139 13
2006-08-30 07:35:48 51°19.22 2°53.575 41.9 1.6 59 12.7
2006-08-30 07:36:48 51°19.26 2°53.633 37.8 4.9 41 12.3
2006-08-30 07:37:48 51°19.358 2°53.75 36.8 8.3 37 13
2006-08-30 07:38:47 51°19.462 2°53.893 44.9 7.9 48 13.1
2006-08-30 07:39:48 51°19.552 2°54.031 44.2 7.1 45 13.4
2006-08-30 07:40:48 51°19.608 2°54.122 50.7 3.4 54 12.9
2006-08-30 07:41:49 51°19.616 2°54.153 41.9 0.7 175 12.8
2006-08-30 07:42:49 51°19.605 2°54.157 52 0.5 176 -999
2006-08-30 07:43:48 51°19.594 2°54.162 57.4 0.3 174 12.8
2006-08-30 07:44:48 51°19.583 2°54.169 54 0.7 150 12.8
2006-08-30 07:45:48 51°19.573 2°54.176 48.1 0.7 161 12.7
2006-08-30 07:46:48 51°19.564 2°54.183 42.9 0.6 148 12.5
2006-08-30 07:47:48 51°19.553 2°54.194 40.5 0.6 145 13
2006-08-30 07:48:48 51°19.546 2°54.201 42.2 0.4 150 12.9
2006-08-30 07:49:48 51°19.537 2°54.208 38.4 0.5 171 12.4
2006-08-30 07:50:48 51°19.528 2°54.215 41.5 0.6 165 12.3
2006-08-30 07:51:48 51°19.52 2°54.221 35.5 0.5 178 12.6
2006-08-30 07:52:48 51°19.51 2°54.227 34.6 0.7 152 12.7
2006-08-30 07:53:48 51°19.501 2°54.234 33.8 0.9 141 12.6
2006-08-30 07:54:48 51°19.492 2°54.237 35.7 0.4 142 12.7
2006-08-30 07:55:48 51°19.538 2°54.294 32.6 6.2 32 12.2
2006-08-30 07:56:49 51°19.643 2°54.419 43.4 8.3 42 13.2
2006-08-30 07:57:48 51°19.741 2°54.569 43.9 8.5 43 13.1
2006-08-30 07:58:48 51°19.834 2°54.713 44.3 6.1 44 13.1
2006-08-30 07:59:49 51°19.886 2°54.79 37 2.7 43 13.4
2006-08-30 08:00:48 51°19.906 2°54.825 30.9 1.7 24 13.2
2006-08-30 08:01:49 51°19.923 2°54.852 29.4 1.3 45 13.3
2006-08-30 08:02:48 51°19.92 2°54.859 21.7 0.6 175 12.9
2006-08-30 08:03:48 51°19.909 2°54.869 25.9 1 151 13
2006-08-30 08:04:48 51°19.896 2°54.873 37.1 1 175 13
2006-08-30 08:05:48 51°19.882 2°54.874 41.9 1 170 13.2
2006-08-30 08:06:49 51°19.868 2°54.874 45.7 0.9 188 12.8
2006-08-30 08:07:49 51°19.854 2°54.878 45.7 1 170 13.2
2006-08-30 08:08:49 51°19.839 2°54.879 46.5 1 165 13
2006-08-30 08:09:49 51°19.824 2°54.88 46.4 0.9 178 12.5
2006-08-30 08:10:49 51°19.809 2°54.883 42.8 0.5 205 12.4
2006-08-30 08:11:49 51°19.797 2°54.884 39.5 0.6 219 12.9
2006-08-30 08:12:48 51°19.783 2°54.887 36.5 0.8 175 12.7
2006-08-30 08:13:48 51°19.792 2°54.905 30.8 3.3 34 12.6
2006-08-30 08:14:48 51°19.877 2°54.998 39.2 7.4 37 12.7
2006-08-30 08:15:48 51°19.98 2°55.127 41.9 8 39 12.7
2006-08-30 08:16:48 51°20.088 2°55.241 31.1 7.4 29 13.2
2006-08-30 08:17:48 51°20.199 2°55.324 27.7 7.6 23 12.9
2006-08-30 08:18:48 51°20.305 2°55.408 30.1 5.4 29 13.3
2006-08-30 08:19:48 51°20.35 2°55.441 17.9 1 22 13.4
2006-08-30 08:20:49 51°20.338 2°55.441 34.1 0.9 169 -999
2006-08-30 08:21:48 51°20.325 2°55.442 42.6 1.3 166 13.2
2006-08-30 08:22:48 51°20.31 2°55.441 49.1 1.1 172 13.3
2006-08-30 08:23:48 51°20.297 2°55.439 47.3 0.6 218 13.2
2006-08-30 08:24:48 51°20.283 2°55.438 45.4 0.9 171 13
2006-08-30 08:25:48 51°20.272 2°55.438 41.2 0.6 192 12.8
2006-08-30 08:26:48 51°20.26 2°55.44 36.4 0.7 176 13
2006-08-30 08:27:48 51°20.247 2°55.441 36.2 1.2 155 13
2006-08-30 08:28:48 51°20.234 2°55.442 36.2 0.6 143 12.6
2006-08-30 08:29:48 51°20.275 2°55.487 33.6 5.2 31 12.9
2006-08-30 08:30:49 51°20.364 2°55.582 37.5 6.6 30 13
2006-08-30 08:31:49 51°20.464 2°55.696 40.5 8.1 33 12.9
2006-08-30 08:32:48 51°20.572 2°55.832 38.9 8.4 35 13.1
2006-08-30 08:33:48 51°20.675 2°55.94 37 6.2 35 13.1
2006-08-30 08:34:49 51°20.748 2°56.018 35.9 4.8 36 14
2006-08-30 08:35:48 51°20.789 2°56.055 28.4 1.9 22 13.5
2006-08-30 08:36:48 51°20.799 2°56.065 27.4 0.2 63 13.5
2006-08-30 08:37:48 51°20.794 2°56.068 23.3 0.7 128 13.4
2006-08-30 08:38:49 51°20.784 2°56.069 26.8 0.6 176 13.2
2006-08-30 08:39:48 51°20.77 2°56.066 38 0.9 212 13.2
2006-08-30 08:40:49 51°20.754 2°56.06 47.8 1.1 176 13.6
2006-08-30 08:41:49 51°20.741 2°56.055 49.8 0.8 206 13.3
2006-08-30 08:42:49 51°20.73 2°56.053 44.5 0.9 162 13
2006-08-30 08:43:48 51°20.718 2°56.052 37.4 0.8 170 13.5
2006-08-30 08:44:49 51°20.704 2°56.052 38.9 1.1 176 13.2
2006-08-30 08:45:48 51°20.689 2°56.049 46.4 1.1 183 12.8
2006-08-30 08:46:48 51°20.672 2°56.045 47.4 1 203 13.4
2006-08-30 08:47:49 51°20.656 2°56.041 44.2 1 171 13.2
2006-08-30 08:48:48 51°20.643 2°56.038 41.3 0.8 193 13.1
2006-08-30 08:49:49 51°20.63 2°56.036 37.2 0.7 222 12.7
2006-08-30 08:50:48 51°20.617 2°56.03 38.4 1 196 12.9
2006-08-30 08:51:48 51°20.602 2°56.026 36 1 187 13
2006-08-30 08:52:49 51°20.585 2°56.023 37.3 0.9 173 13.2
2006-08-30 08:53:49 51°20.612 2°56.065 40.5 4.3 46 12.6
2006-08-30 08:54:48 51°20.672 2°56.158 49.2 5.7 44 13
2006-08-30 08:55:49 51°20.745 2°56.275 44.5 6.8 38 12.8
2006-08-30 08:56:49 51°20.85 2°56.386 36.9 7.8 30 12.9
2006-08-30 08:57:48 51°20.95 2°56.516 49.2 7.9 47 13.5
2006-08-30 08:58:48 51°21.022 2°56.615 39.2 4.3 34 13.3
2006-08-30 08:59:48 51°21.076 2°56.67 41.3 3.7 35 13
2006-08-30 09:00:48 51°21.119 2°56.738 46.5 3.2 36 13.2
2006-08-30 09:01:48 51°21.143 2°56.766 33.8 0.9 30 13.2
2006-08-30 09:02:49 51°21.151 2°56.77 23.4 0.3 341 13.3
2006-08-30 09:03:49 51°21.15 2°56.768 20.7 0.5 245 13
2006-08-30 09:04:49 51°21.142 2°56.765 22.1 0.8 238 13.4
2006-08-30 09:05:49 51°21.131 2°56.759 26.5 0.9 207 13.2
2006-08-30 09:06:48 51°21.119 2°56.753 35.7 0.8 200 13.2
2006-08-30 09:07:49 51°21.105 2°56.747 39.9 1 186 13.3
2006-08-30 09:08:48 51°21.091 2°56.741 43.1 0.8 212 13.1
2006-08-30 09:09:49 51°21.105 2°56.765 40.4 3.4 33 12.8
2006-08-30 09:10:49 51°21.163 2°56.85 49.9 5.3 45 12.9
2006-08-30 09:11:48 51°21.221 2°56.968 57.1 6.4 59 13.3
2006-08-30 09:12:49 51°21.286 2°57.123 57.3 7.1 54 13.2
2006-08-30 09:13:49 51°21.359 2°57.279 55.7 7.3 52 13
2006-08-30 09:14:49 51°21.411 2°57.379 47.8 3.3 48 13
2006-08-30 09:15:48 51°21.443 2°57.442 53.4 2.3 52 13.1
2006-08-30 09:16:48 51°21.455 2°57.469 34.9 0.7 70 13.1
2006-08-30 09:17:49 51°21.459 2°57.474 31.1 0.2 304 12.9
2006-08-30 09:18:49 51°21.454 2°57.477 29 0.4 157 13.5
2006-08-30 09:19:49 51°21.446 2°57.476 25 0.5 227 13.3
2006-08-30 09:20:48 51°21.435 2°57.476 24.9 0.8 178 13.3
2006-08-30 09:21:49 51°21.421 2°57.473 31.2 0.8 203 12.9
2006-08-30 09:22:49 51°21.405 2°57.47 38 1 212 13.3
2006-08-30 09:23:49 51°21.388 2°57.466 42.7 1.2 204 12.8
2006-08-30 09:24:49 51°21.371 2°57.458 49.1 1 201 13.1
2006-08-30 09:25:49 51°21.356 2°57.453 49.5 0.8 223 13
2006-08-30 09:26:49 51°21.342 2°57.447 45 0.7 183 12.7
2006-08-30 09:27:49 51°21.328 2°57.442 39.9 0.8 207 13
2006-08-30 09:28:48 51°21.316 2°57.437 36.2 0.9 178 13.1
2006-08-30 09:29:49 51°21.301 2°57.433 38.6 1.1 179 12.5
2006-08-30 09:30:49 51°21.286 2°57.426 38.7 1 186 13
2006-08-30 09:31:48 51°21.271 2°57.42 38.7 1 191 12.9
2006-08-30 09:32:49 51°21.256 2°57.414 36.3 1 183 12.7
2006-08-30 09:33:48 51°21.24 2°57.408 37.6 1 216 13
2006-08-30 09:34:49 51°21.223 2°57.404 38 1.2 168 12.8
2006-08-30 09:35:49 51°21.209 2°57.4 34.7 0.3 122 13
2006-08-30 09:36:49 51°21.25 2°57.452 42.5 5.1 43 11.8
2006-08-30 09:37:49 51°21.323 2°57.564 50.2 6.5 51 12.9
2006-08-30 09:38:49 51°21.408 2°57.722 51.6 8.4 49 12.9
2006-08-30 09:39:49 51°21.507 2°57.884 44.6 8.5 44 12.6
2006-08-30 09:40:49 51°21.616 2°58.033 42.9 8.7 38 12.7
2006-08-30 09:41:49 51°21.725 2°58.134 26.3 5.3 19 12.9
2006-08-30 09:42:49 51°21.772 2°58.159 28.3 1.7 25 13.2
2006-08-30 09:43:49 51°21.777 2°58.162 16.7 0.2 233 13.3
2006-08-30 09:44:49 51°21.77 2°58.163 21.7 0.6 174 13.2
2006-08-30 09:45:49 51°21.759 2°58.162 30.2 0.7 187 12.7
2006-08-30 09:46:48 51°21.746 2°58.16 39.9 0.8 197 12.8
2006-08-30 09:47:49 51°21.733 2°58.158 42.3 1.1 186 12.9
2006-08-30 09:48:49 51°21.718 2°58.152 44.1 1 178 12.7
2006-08-30 09:49:49 51°21.703 2°58.146 42.6 0.9 226 13.1
2006-08-30 09:50:49 51°21.689 2°58.139 39.6 1.2 192 12.8
2006-08-30 09:51:49 51°21.674 2°58.134 43.4 1 187 13.4
2006-08-30 09:52:49 51°21.658 2°58.128 44.4 0.9 213 12.7
2006-08-30 09:53:48 51°21.641 2°58.123 47.1 0.9 193 12.8
2006-08-30 09:54:49 51°21.625 2°58.117 45.9 1.2 170 12.7
2006-08-30 09:55:49 51°21.61 2°58.108 39.9 1 198 13.1
2006-08-30 09:56:49 51°21.594 2°58.103 39.1 0.9 208 12.7
2006-08-30 09:57:48 51°21.578 2°58.095 40.1 1 225 12.6
2006-08-30 09:58:49 51°21.559 2°58.089 44.8 1.1 191 12.5
2006-08-30 09:59:49 51°21.543 2°58.083 45.1 1 178 12.5
2006-08-30 10:00:49 51°21.527 2°58.076 40.1 1 196 12.8
2006-08-30 10:01:48 51°21.51 2°58.07 40.1 1 194 12.6
2006-08-30 10:02:47 51°21.495 2°58.065 40.9 1.2 181 12.4
2006-08-30 10:03:49 51°21.476 2°58.059 38.5 1.3 177 13.1
2006-08-30 10:04:49 51°21.464 2°58.059 38.8 0.3 79 12.5
2006-08-30 10:05:48 51°21.471 2°58.073 34.8 0.8 34 12.8
2006-08-30 10:06:49 51°21.487 2°58.1 43.6 1.9 61 12.2
2006-08-30 10:07:49 51°21.511 2°58.14 43.3 2.5 49 12.7
2006-08-30 10:08:49 51°21.541 2°58.185 41.9 2.4 52 12.1
2006-08-30 10:09:49 51°21.569 2°58.231 44.7 2.6 47 12.1
2006-08-30 10:10:49 51°21.599 2°58.281 46.7 2.6 50 12.9
2006-08-30 10:11:49 51°21.627 2°58.33 42.6 2.5 40 12.6
2006-08-30 10:12:49 51°21.656 2°58.375 41.2 2.4 43 12.7
2006-08-30 10:13:49 51°21.686 2°58.424 43.7 2.6 55 12.6
2006-08-30 10:14:47 51°21.714 2°58.468 37.7 2.6 41 12.9
2006-08-30 10:15:48 51°21.747 2°58.511 37.7 2.5 38 12.5
2006-08-30 10:16:49 51°21.778 2°58.553 36.4 2.5 38 12.3
2006-08-30 10:17:48 51°21.808 2°58.596 36.8 2.5 47 12.9
2006-08-30 10:18:49 51°21.842 2°58.643 39.1 2.7 48 12.8
2006-08-30 10:19:49 51°21.874 2°58.69 39.8 2.5 45 12.6
2006-08-30 10:20:49 51°21.907 2°58.738 39.9 2.8 37 12.8
2006-08-30 10:21:49 51°21.939 2°58.789 41.5 2.7 42 13
2006-08-30 10:22:49 51°21.973 2°58.836 37 2.8 38 12.9
2006-08-30 10:23:49 51°22.009 2°58.881 35 2.7 39 12.7
2006-08-30 10:24:49 51°22.045 2°58.925 34.6 2.7 37 12.7
2006-08-30 10:25:49 51°22.069 2°58.947 20.6 0.8 19 13
2006-08-30 10:26:47 51°22.07 2°58.951 18.6 0.2 198 13.3
2006-08-30 10:27:49 51°22.062 2°58.951 15.2 0.6 195 12.6
2006-08-30 10:28:49 51°22.049 2°58.952 15.6 0.9 191 12.9
2006-08-30 10:29:49 51°22.031 2°58.953 24.5 1.2 177 12.7
2006-08-30 10:30:49 51°22.011 2°58.951 30.4 1.3 178 12.9
2006-08-30 10:31:49 51°21.99 2°58.945 35.9 1.4 182 12.7
2006-08-30 10:32:49 51°21.968 2°58.942 43.5 1.2 193 12.8
2006-08-30 10:33:49 51°21.947 2°58.938 44.2 1.4 185 12.5
2006-08-30 10:34:49 51°21.94 2°58.944 20.6 0.8 13 12.4
2006-08-30 10:35:49 51°21.968 2°58.927 344.2 2.2 336 12.7
2006-08-30 10:36:49 51°21.991 2°58.92 12.2 1.3 355 12.6
2006-08-30 10:37:49 51°22.01 2°58.929 14.3 0.8 35 12.2
2006-08-30 10:38:49 51°22.023 2°58.937 18.3 1 39 12.6
2006-08-30 10:39:49 51°22.04 2°58.943 13.8 1.1 2 12.9
2006-08-30 10:40:49 51°22.061 2°58.947 11 0.7 350 12.8
2006-08-30 10:41:49 51°22.06 2°58.949 15.2 0.4 191 12.9
2006-08-30 10:42:48 51°22.051 2°58.951 19.5 0.7 174 13.1
2006-08-30 10:43:49 51°22.036 2°58.952 25.2 1 186 12.5
2006-08-30 10:44:49 51°22.018 2°58.95 31.9 1.3 176 12.8
2006-08-30 10:45:49 51°21.998 2°58.947 37.6 1.4 176 13
2006-08-30 10:46:49 51°21.978 2°58.941 42 1.3 196 12.1
2006-08-30 10:47:47 51°21.955 2°58.938 43.2 1.6 181 12.8
2006-08-30 10:48:49 51°21.932 2°58.93 44.4 1.3 190 12.2
2006-08-30 10:49:49 51°21.91 2°58.923 44.5 1.2 193 12.6
2006-08-30 10:50:49 51°21.89 2°58.917 43.1 1.1 192 12.2
2006-08-30 10:51:49 51°21.869 2°58.915 40.2 1.2 183 12.3
2006-08-30 10:52:49 51°21.849 2°58.912 37.7 1.3 173 12.5
2006-08-30 10:53:49 51°21.829 2°58.909 38.4 1.3 183 12.4
2006-08-30 10:54:49 51°21.81 2°58.903 36 1.2 192 12.8
2006-08-30 10:55:49 51°21.791 2°58.898 35.6 1.1 194 12.4
2006-08-30 10:56:48 51°21.772 2°58.892 35.4 1.4 183 12.4
2006-08-30 10:57:48 51°21.754 2°58.888 33.1 0.7 159 12.1
2006-08-30 10:58:48 51°21.769 2°58.908 25.9 2.6 25 12.3
2006-08-30 10:59:48 51°21.836 2°58.965 35.8 6.2 36 11.9
2006-08-30 11:00:49 51°21.929 2°59.092 42.9 7.9 40 12.8
2006-08-30 11:01:49 51°22.039 2°59.223 36.3 8.4 32 12.5
2006-08-30 11:02:49 51°22.16 2°59.342 33.4 8.6 31 12.5
2006-08-30 11:03:49 51°22.282 2°59.461 34.2 8.5 32 12.6
2006-08-30 11:04:49 51°22.362 2°59.538 30.4 3.3 28 13
2006-08-30 11:05:49 51°22.379 2°59.547 11.2 0.2 240 12.9
2006-08-30 11:06:49 51°22.371 2°59.541 358.4 0.7 199 13
2006-08-30 11:07:49 51°22.356 2°59.537 4.9 1.1 182 13.4
2006-08-30 11:08:49 51°22.332 2°59.531 26.2 1.5 184 13.1
2006-08-30 11:09:49 51°22.309 2°59.522 38.7 1.3 208 13.1
2006-08-30 11:10:49 51°22.284 2°59.513 44.4 1.4 202 12.2
2006-08-30 11:11:48 51°22.262 2°59.506 46.1 1.3 184 12.9
2006-08-30 11:12:49 51°22.24 2°59.497 42.5 1.2 199 12.7
2006-08-30 11:13:49 51°22.218 2°59.489 39.6 1.4 197 13
2006-08-30 11:14:49 51°22.197 2°59.482 37.3 1.2 192 12.4
2006-08-30 11:15:49 51°22.174 2°59.477 35.9 1.5 179 12.4
2006-08-30 11:16:49 51°22.152 2°59.471 33.6 1.4 192 12.5
2006-08-30 11:17:49 51°22.129 2°59.465 35.1 1.4 195 12.5
2006-08-30 11:18:49 51°22.106 2°59.46 36.7 1.5 184 12.2
2006-08-30 11:19:49 51°22.084 2°59.455 36.7 1.4 188 12.6
2006-08-30 11:20:49 51°22.062 2°59.451 33.4 1.2 191 12.1
2006-08-30 11:21:49 51°22.041 2°59.448 31.4 1.4 174 12.2
2006-08-30 11:22:49 51°22.04 2°59.453 25.7 1.5 21 12.4
2006-08-30 11:23:49 51°22.089 2°59.496 33.1 5.7 31 12.4
2006-08-30 11:24:49 51°22.189 2°59.621 42.8 8.5 43 12.3
2006-08-30 11:25:48 51°22.298 2°59.767 42.2 8.8 42 12.5
2006-08-30 11:26:49 51°22.413 2°59.915 40.9 8.7 38 12.4
2006-08-30 11:27:49 51°22.526 3°0.061 42.6 8.8 40 12.5
2006-08-30 11:28:49 51°22.624 3°0.185 41 6.5 40 12.6
2006-08-30 11:29:49 51°22.701 3°0.282 38.4 4.8 34 12.9
2006-08-30 11:30:48 51°22.741 3°0.328 35.8 1.7 33 13.4
2006-08-30 11:31:49 51°22.749 3°0.335 23.7 0.2 246 13.3
2006-08-30 11:32:48 51°22.742 3°0.33 12.3 0.8 218 13.5
2006-08-30 11:33:49 51°22.726 3°0.324 18.6 1 200 13.4
2006-08-30 11:34:49 51°22.709 3°0.317 25.8 1.3 202 13.1
2006-08-30 11:35:49 51°22.689 3°0.31 34.1 1.4 191 13
2006-08-30 11:36:49 51°22.669 3°0.301 40 1.2 205 13
2006-08-30 11:37:49 51°22.648 3°0.293 35.5 1.3 192 13.2
2006-08-30 11:38:49 51°22.629 3°0.281 29.7 1.3 200 12.9
2006-08-30 11:39:49 51°22.609 3°0.273 26.7 1.3 202 12.4
2006-08-30 11:40:49 51°22.587 3°0.264 26.3 1.4 203 12.7
2006-08-30 11:41:48 51°22.564 3°0.256 30.8 1.5 187 12.4
2006-08-30 11:42:49 51°22.547 3°0.252 30.9 0.2 178 12.2
2006-08-30 11:43:49 51°22.589 3°0.232 346.9 3.8 329 12.5
2006-08-30 11:44:48 51°22.637 3°0.209 4.1 1.8 347 13.1
2006-08-30 11:45:49 51°22.657 3°0.199 4.5 1.1 340 13.5
2006-08-30 11:46:49 51°22.669 3°0.185 0.9 0.9 323 13.4
2006-08-30 11:47:49 51°22.68 3°0.172 -999 0.7 326 13.5
2006-08-30 11:48:48 51°22.686 3°0.16 359.4 0.7 311 13.6
2006-08-30 11:49:49 51°22.69 3°0.146 359.1 0.8 309 13.6
2006-08-30 11:50:49 51°22.697 3°0.13 357.1 0.9 311 13.4
2006-08-30 11:51:49 51°22.704 3°0.115 359.5 0.5 296 13.3
2006-08-30 11:52:49 51°22.706 3°0.105 6.7 0.5 318 13.7
2006-08-30 11:53:49 51°22.722 3°0.094 2.5 1.6 339 13.8
2006-08-30 11:54:49 51°22.756 3°0.081 358.1 2.8 340 14.3
2006-08-30 11:55:49 51°22.793 3°0.045 348.2 2.5 331 14
2006-08-30 11:56:49 51°22.84 2°59.977 316.2 6.4 296 14.9
2006-08-30 11:57:49 51°22.902 2°59.748 308.5 11 300 15.5
2006-08-30 11:58:49 51°22.993 2°59.544 328 8.2 319 16.2
2006-08-30 11:59:49 51°23.099 2°59.52 27.3 6.4 24 17.1
2006-08-30 12:00:49 51°23.177 2°59.588 33.3 5.3 29 17.3
2006-08-30 12:01:49 51°23.246 2°59.651 35.5 3.7 31 17.9
2006-08-30 12:02:49 51°23.281 2°59.682 31.4 1.2 26 17.7
2006-08-30 12:03:49 51°23.283 2°59.676 12.2 0.4 177 18
2006-08-30 12:04:49 51°23.271 2°59.667 11.6 0.9 193 17.8
2006-08-30 12:05:49 51°23.255 2°59.657 10.2 1.3 200 17.9
2006-08-30 12:06:49 51°23.234 2°59.647 20.7 1.3 204 17.9
2006-08-30 12:07:49 51°23.212 2°59.637 31.6 1.3 199 17.7
2006-08-30 12:08:49 51°23.188 2°59.626 39.8 1.6 205 17.2
2006-08-30 12:09:49 51°23.164 2°59.616 43.1 1.5 190 17.4
2006-08-30 12:10:49 51°23.142 2°59.607 40.1 1.4 197 17
2006-08-30 12:11:49 51°23.119 2°59.596 35.7 1.5 198 17.2
2006-08-30 12:12:49 51°23.096 2°59.584 33.6 1.4 210 17.1
2006-08-30 12:13:49 51°23.074 2°59.575 32.6 1.3 204 16.7
2006-08-30 12:14:49 51°23.052 2°59.567 31.4 1.4 194 16.5
2006-08-30 12:15:49 51°23.037 2°59.562 27.6 0.2 46 16.5
2006-08-30 12:16:49 51°23.064 2°59.545 347.2 3.3 326 16.8
2006-08-30 12:17:49 51°23.095 2°59.422 287.4 7 275 17.4
2006-08-30 12:18:49 51°23.065 2°59.186 263.5 10 254 17.8
2006-08-30 12:19:49 51°22.981 2°58.952 239.4 10.4 230 17.9
2006-08-30 12:20:49 51°22.886 2°58.823 212.3 6 210 17.9
2006-08-30 12:21:49 51°22.829 2°58.758 229.4 3 217 17.8
2006-08-30 12:22:49 51°22.805 2°58.748 221.6 1.1 176 17.5
2006-08-30 12:23:49 51°22.786 2°58.743 194.5 1.4 202 17.3
2006-08-30 12:24:49 51°22.763 2°58.734 184.8 1.5 192 17.7
2006-08-30 12:25:49 51°22.738 2°58.726 187.2 1.6 194 17.4
2006-08-30 12:26:49 51°22.713 2°58.718 193.8 1.6 187 16.9
2006-08-30 12:27:49 51°22.688 2°58.709 200.1 1.5 192 17.5
2006-08-30 12:28:49 51°22.664 2°58.7 203.9 1.4 196 17.3
2006-08-30 12:29:49 51°22.64 2°58.691 205 1.4 201 17.3
2006-08-30 12:30:49 51°22.616 2°58.685 197.1 1.6 189 17.2
2006-08-30 12:31:49 51°22.592 2°58.678 194.4 1.4 192 17.1
2006-08-30 12:32:49 51°22.567 2°58.669 195.2 1.5 194 16.7
2006-08-30 12:33:49 51°22.543 2°58.659 197 1.5 191 16.4
2006-08-30 12:34:49 51°22.482 2°58.601 228.4 6.5 222 15.9
2006-08-30 12:35:48 51°22.44 2°58.416 273.5 9.1 264 16.5
2006-08-30 12:36:49 51°22.427 2°58.156 278.8 9.8 272 17
2006-08-30 12:37:49 51°22.442 2°57.929 289.5 6.7 274 17.6
2006-08-30 12:38:49 51°22.453 2°57.817 308.7 2.1 280 18
2006-08-30 12:39:49 51°22.45 2°57.784 325.4 0.9 246 18
2006-08-30 12:40:49 51°22.435 2°57.776 346.4 1.2 188 17.9
2006-08-30 12:41:49 51°22.413 2°57.771 12.2 1.6 204 17.5
2006-08-30 12:42:49 51°22.388 2°57.761 34.6 1.7 196 17.8
2006-08-30 12:43:49 51°22.364 2°57.752 45.3 1.5 189 17.6
2006-08-30 12:44:49 51°22.342 2°57.744 40 1.3 184 17.6
2006-08-30 12:45:49 51°22.321 2°57.737 34.1 1.4 174 17.9
2006-08-30 12:46:49 51°22.302 2°57.727 29.9 1.2 206 17.5
2006-08-30 12:47:49 51°22.281 2°57.72 28.9 1.3 196 17.7
2006-08-30 12:48:49 51°22.261 2°57.712 25.2 1.4 183 17.8
2006-08-30 12:49:50 51°22.239 2°57.706 25.6 1.3 196 16.9
2006-08-30 12:50:49 51°22.217 2°57.698 25.5 1.4 185 16.8
2006-08-30 12:51:49 51°22.194 2°57.69 29.7 1.6 189 17.4
2006-08-30 12:52:49 51°22.171 2°57.685 34.8 1.6 189 17.3
2006-08-30 12:53:49 51°22.149 2°57.678 37.8 1.4 202 17.2
2006-08-30 12:54:49 51°22.142 2°57.678 21 1.3 16 16.8
2006-08-30 12:55:49 51°22.18 2°57.642 324.3 4.2 305 17.5
2006-08-30 12:56:48 51°22.175 2°57.486 259.1 7.9 250 17.6
2006-08-30 12:57:49 51°22.131 2°57.237 263 10 256 17.7
2006-08-30 12:58:49 51°22.082 2°56.983 253.9 10.2 247 17.8
2006-08-30 12:59:49 51°22.025 2°56.79 251.3 5.8 244 17.7
2006-08-30 13:00:49 51°21.99 2°56.71 264.9 2.1 217 18.6
2006-08-30 13:01:49 51°21.967 2°56.711 267.8 1.2 163 18.3
2006-08-30 13:02:49 51°21.948 2°56.721 253.5 1.1 161 17.9
2006-08-30 13:03:49 51°21.933 2°56.733 232.5 1 146 17.6
2006-08-30 13:04:49 51°21.921 2°56.74 206.9 0.8 181 17.7
2006-08-30 13:05:49 51°21.905 2°56.739 189.1 1.2 189 17.4
2006-08-30 13:06:49 51°21.886 2°56.735 183.6 1.2 195 17.9
2006-08-30 13:07:49 51°21.864 2°56.73 186 1.3 188 17.7
2006-08-30 13:08:49 51°21.84 2°56.725 191.6 1.4 183 17.5
2006-08-30 13:09:49 51°21.816 2°56.72 200.1 1.3 185 17.5
2006-08-30 13:10:49 51°21.795 2°56.715 201.6 1.3 189 17.8
2006-08-30 13:11:49 51°21.774 2°56.711 199.2 1.4 189 17.5
2006-08-30 13:12:49 51°21.753 2°56.707 194.1 1.2 184 17.6
2006-08-30 13:13:49 51°21.733 2°56.705 187.4 1.2 182 17.3
2006-08-30 13:14:49 51°21.708 2°56.701 192.6 1.4 184 17.5
2006-08-30 13:15:49 51°21.684 2°56.697 194.3 1.9 197 17.3
2006-08-30 13:16:49 51°21.618 2°56.632 230.6 6.4 224 17
2006-08-30 13:17:49 51°21.589 2°56.439 278.4 8.3 269 17.4
2006-08-30 13:18:49 51°21.602 2°56.213 281.3 8.7 275 17.6
2006-08-30 13:19:49 51°21.594 2°55.981 278.3 8.5 272 17.8
2006-08-30 13:20:49 51°21.593 2°55.793 275.7 5.3 263 18.5
2006-08-30 13:21:49 51°21.576 2°55.704 262.8 2.5 231 17.9
2006-08-30 13:22:50 51°21.555 2°55.701 254.2 1.4 164 -999
2006-08-30 13:23:49 51°21.539 2°55.711 228.4 1.1 165 17.9
2006-08-30 13:24:49 51°21.522 2°55.715 207 1.1 165 18.1
2006-08-30 13:25:49 51°21.504 2°55.718 188.4 1 173 17.9
2006-08-30 13:26:49 51°21.486 2°55.719 179.2 1.2 170 18
2006-08-30 13:27:49 51°21.466 2°55.717 183.9 1.1 192 17.8
2006-08-30 13:28:49 51°21.445 2°55.716 190.6 1.2 188 17.8
2006-08-30 13:29:49 51°21.425 2°55.716 193.7 1.3 188 17.9
2006-08-30 13:30:49 51°21.404 2°55.717 192.6 1.3 188 17.6
2006-08-30 13:31:49 51°21.38 2°55.714 201.1 1.3 188 17.9
2006-08-30 13:32:49 51°21.357 2°55.714 202.9 1.4 178 17.7
2006-08-30 13:33:49 51°21.334 2°55.716 199.5 1.4 177 16.9
2006-08-30 13:34:49 51°21.311 2°55.717 203.6 1.4 177 17.7
2006-08-30 13:35:49 51°21.289 2°55.72 203.9 1.4 186 17
2006-08-30 13:36:49 51°21.267 2°55.719 208.5 1.4 181 17.5
2006-08-30 13:37:49 51°21.244 2°55.721 207.1 1.4 178 17.4
2006-08-30 13:38:49 51°21.222 2°55.726 200.5 1.2 181 17.2
2006-08-30 13:39:49 51°21.201 2°55.731 196.9 1.3 182 17
2006-08-30 13:40:49 51°21.181 2°55.735 197.7 1.2 174 17.1
2006-08-30 13:41:49 51°21.162 2°55.742 192 1.1 165 17.3
2006-08-30 13:42:49 51°21.142 2°55.749 188.7 1.5 174 16.9
2006-08-30 13:43:49 51°21.088 2°55.728 213.4 4.4 211 17
2006-08-30 13:44:49 51°21.032 2°55.643 249.6 4.7 240 16.6
2006-08-30 13:45:49 51°21.013 2°55.53 277.9 4.7 260 16.7
2006-08-30 13:46:49 51°20.999 2°55.383 270.1 7.6 262 16.9
2006-08-30 13:47:49 51°20.991 2°55.142 277.2 9.5 271 17.4
2006-08-30 13:48:49 51°20.991 2°54.887 276.7 9.7 270 17.4
2006-08-30 13:49:49 51°20.991 2°54.656 278.1 6.2 269 17.7
2006-08-30 13:50:49 51°20.987 2°54.545 282.8 2.8 262 17.7
2006-08-30 13:51:49 51°20.977 2°54.529 298.8 0.8 167 18
2006-08-30 13:52:49 51°20.966 2°54.538 319.7 0.2 167 17.8
2006-08-30 13:53:49 51°20.965 2°54.531 308.2 0.2 160 17.9
2006-08-30 13:54:49 51°20.959 2°54.537 318.3 0.8 142 17.7
2006-08-30 13:55:49 51°20.945 2°54.555 331.6 1.4 137 17.8
2006-08-30 13:56:49 51°20.926 2°54.575 0.4 1.3 150 17.4
2006-08-30 13:57:49 51°20.906 2°54.586 21.3 1.3 165 18
2006-08-30 13:58:49 51°20.889 2°54.597 29.4 1 152 17.8
2006-08-30 13:59:49 51°20.872 2°54.609 33.8 1 159 17.8
2006-08-30 14:00:49 51°20.856 2°54.622 34.7 1.1 150 17.6
2006-08-30 14:01:49 51°20.84 2°54.636 34.9 1.1 151 17.9
2006-08-30 14:02:49 51°20.824 2°54.652 36.2 0.8 147 17.8
2006-08-30 14:03:49 51°20.81 2°54.669 33.3 1 148 17.6
2006-08-30 14:04:49 51°20.796 2°54.685 30.3 1.2 137 17.6
2006-08-30 14:05:49 51°20.782 2°54.704 30.4 1.1 136 17.8
2006-08-30 14:06:49 51°20.768 2°54.721 30.8 1.1 142 17.9
2006-08-30 14:07:49 51°20.755 2°54.741 27.3 1.2 132 17.5
2006-08-30 14:08:49 51°20.745 2°54.761 21.7 1.1 124 17.6
2006-08-30 14:09:49 51°20.732 2°54.782 22.4 1.3 140 17.7
2006-08-30 14:10:49 51°20.72 2°54.802 22.1 1.1 129 17.3
2006-08-30 14:11:49 51°20.745 2°54.816 349.1 3.4 354 17.5
2006-08-30 14:12:49 51°20.78 2°54.688 270 7.6 258 17.8
2006-08-30 14:13:49 51°20.711 2°54.439 253.1 11.3 249 17.9
2006-08-30 14:14:49 51°20.638 2°54.155 247.9 11.5 242 17.9
2006-08-30 14:15:49 51°20.567 2°53.873 253 11.4 245 18.1
2006-08-30 14:16:49 51°20.493 2°53.622 248.5 8.9 242 18.1
2006-08-30 14:17:49 51°20.448 2°53.491 251.6 4.1 237 18.2
2006-08-30 14:18:49 51°20.42 2°53.427 253.7 2.3 234 18.2
2006-08-30 14:19:49 51°20.408 2°53.378 272.2 1.3 256 18
2006-08-30 14:20:49 51°20.398 2°53.361 248.5 0.5 192 18.2
2006-08-30 14:21:49 51°20.386 2°53.373 222.3 0.9 140 18.2
2006-08-30 14:22:49 51°20.374 2°53.396 206.9 1.2 117 17.9
2006-08-30 14:23:49 51°20.363 2°53.421 198 1.1 130 18.4
2006-08-30 14:24:49 51°20.352 2°53.446 197.3 1.3 120 18.5
2006-08-30 14:25:48 51°20.341 2°53.47 203.2 1.1 125 18.3
2006-08-30 14:26:49 51°20.331 2°53.497 206.9 1.2 117 18.2
2006-08-30 14:27:49 51°20.32 2°53.522 209.2 1 124 18.2
2006-08-30 14:28:49 51°20.311 2°53.552 206.3 1 110 18.1
2006-08-30 14:29:49 51°20.304 2°53.582 200.9 1.2 109 18.3
2006-08-30 14:30:50 51°20.298 2°53.613 196.7 1.1 108 18.3
2006-08-30 14:31:49 51°20.293 2°53.643 194.1 1 108 18.2
2006-08-30 14:32:49 51°20.285 2°53.674 196.1 1.2 115 18
2006-08-30 14:33:49 51°20.277 2°53.706 199.6 1.2 112 18.1
2006-08-30 14:34:49 51°20.269 2°53.737 199.6 1.3 112 18.2
2006-08-30 14:35:49 51°20.262 2°53.767 200.3 1.2 112 17.9
2006-08-30 14:36:48 51°20.254 2°53.797 202.5 1.1 117 18
2006-08-30 14:37:49 51°20.247 2°53.826 204.8 1.2 110 18.1
2006-08-30 14:38:48 51°20.236 2°53.853 203.1 1.9 159 17.8
2006-08-30 14:39:49 51°20.148 2°53.809 211.6 8.2 208 17.1
2006-08-30 14:40:49 51°19.99 2°53.683 212.4 11.3 208 17.3
2006-08-30 14:41:49 51°19.818 2°53.56 207.6 11.6 200 16.6
2006-08-30 14:42:49 51°19.644 2°53.448 204.8 11.5 202 16.1
2006-08-30 14:43:49 51°19.466 2°53.342 206.8 11.5 205 15.6
2006-08-30 14:44:49 51°19.287 2°53.233 206.7 11.7 205 15
2006-08-30 14:45:49 51°19.109 2°53.127 205.1 11.5 200 14.6
2006-08-30 14:46:49 51°18.93 2°53.024 206.3 11.6 199 14.2
2006-08-30 14:47:49 51°18.753 2°52.922 203.8 11.6 196 14.1
2006-08-30 14:48:49 51°18.574 2°52.834 202.5 11.6 194 13.8
2006-08-30 14:49:49 51°18.397 2°52.74 205.3 10.6 199 13.8
2006-08-30 14:50:49 51°18.22 2°52.652 203.8 10.5 198 13.5
2006-08-30 14:51:49 51°18.04 2°52.579 199.4 10.8 190 13.2
2006-08-30 14:52:49 51°17.861 2°52.505 199.4 11.3 196 13
2006-08-30 14:53:49 51°17.683 2°52.425 201.7 10.8 200 12.9
2006-08-30 14:54:49 51°17.504 2°52.35 200.7 10.9 194 13.1
2006-08-30 14:55:49 51°17.326 2°52.27 198 11 194 12.9
2006-08-30 14:56:49 51°17.138 2°52.299 172.3 11.7 164 12.7
2006-08-30 14:57:49 51°16.956 2°52.411 162.7 11.2 155 12.3
2006-08-30 14:58:48 51°16.778 2°52.551 157.6 12 147 12.6
2006-08-30 14:59:48 51°16.603 2°52.703 159.5 12 154 13.9
2006-08-30 15:00:49 51°16.422 2°52.855 161.3 12.7 153 14.3
2006-08-30 15:01:48 51°16.245 2°52.991 159.3 12.3 155 14.6
2006-08-30 15:02:49 51°16.062 2°53.125 163.3 11.2 158 14.4
2006-08-30 15:03:49 51°15.885 2°53.266 161.8 11.4 154 14.1
2006-08-30 15:04:49 51°15.709 2°53.408 160.5 11.8 151 13.6
2006-08-30 15:05:49 51°15.528 2°53.548 161.8 12.9 154 13.1
2006-08-30 15:06:49 51°15.35 2°53.681 160.4 12.4 154 12.6
2006-08-30 15:07:48 51°15.171 2°53.791 174.1 12.5 165 12
2006-08-30 15:08:49 51°15.002 2°53.815 187.7 8.5 177 11.9
2006-08-30 15:09:48 51°14.876 2°53.831 187.4 8.1 169 12.1
2006-08-30 15:10:49 51°14.752 2°53.952 148 9.7 135 12.7
2006-08-30 15:11:49 51°14.63 2°54.151 143.5 10.9 135 14
2006-08-30 15:12:49 51°14.532 2°54.402 121.7 11.7 116 13.6
2006-08-30 15:13:49 51°14.452 2°54.704 123.2 12.3 111 13.4
2006-08-30 15:14:49 51°14.38 2°55.02 120 12.7 109 13.1
2006-08-30 15:15:49 51°14.267 2°55.264 128.8 10.2 129 13
2006-08-30 15:16:48 51°14.159 2°55.393 155.9 7.6 156 12.8
2006-08-30 15:17:49 51°14.044 2°55.478 158 7.5 154 12.9
2006-08-30 15:18:49 51°13.929 2°55.56 158.2 7.6 157 13.4
2006-08-30 15:19:49 51°13.816 2°55.644 155.3 7.7 153 13.5
2006-08-30 15:20:50 51°13.729 2°55.748 132 5.1 131 -999
2006-08-30 15:21:51 51°13.682 2°55.849 126.2 4.5 125 -999
2006-08-30 15:22:50 51°13.645 2°55.934 125.1 3.8 124 -999
2006-08-30 15:23:51 51°13.619 2°56.009 113 2.9 113 -999
2006-08-30 15:24:51 51°13.608 2°56.06 112.6 1.6 108 -999